Time;durP1;ratioP1;P1;durP2;ratioP2;P2;SDS_P1;SDS_P2;PMS_P1;PMS_P2;Temp;Humidity;BMP_temperature;BMP_pressure;BME280_temperature;BME280_humidity;BME280_pressure;Samples;Min_cycle;Max_cycle;Signal;HPM_P1;HPM_P2
2023/10/22 00:01:07;;;;;;;7.70;5.43;;;;;;;12.30;95.84;97118.31;4195463;28;20629;-81
2023/10/22 00:03:10;;;;;;;6.73;5.20;;;;;;;12.28;96.21;97115.81;4190367;28;20724;-82
2023/10/22 00:05:13;;;;;;;5.10;4.33;;;;;;;12.26;96.08;97124.75;4202569;28;20980;-82
2023/10/22 00:07:16;;;;;;;6.17;5.07;;;;;;;12.23;96.66;97120.63;4180285;28;20629;-82
2023/10/22 00:09:19;;;;;;;5.53;4.17;;;;;;;12.23;95.55;97130.25;4177013;28;20683;-81
2023/10/22 00:11:23;;;;;;;5.97;4.57;;;;;;;12.23;95.82;97139.91;4159630;28;21194;-81
2023/10/22 00:13:26;;;;;;;5.47;4.50;;;;;;;12.20;95.65;97138.38;4185051;28;20652;-81
2023/10/22 00:15:30;;;;;;;4.83;4.10;;;;;;;12.14;95.11;97138.94;4191150;28;20644;-82
2023/10/22 00:17:34;;;;;;;5.77;4.30;;;;;;;12.13;95.48;97141.69;4177699;28;21205;-81
2023/10/22 00:19:37;;;;;;;6.50;4.60;;;;;;;12.11;95.00;97141.00;4196852;28;20640;-82
2023/10/22 00:21:40;;;;;;;7.10;4.23;;;;;;;12.06;94.91;97138.81;4192611;28;20620;-82
2023/10/22 00:23:44;;;;;;;5.43;3.80;;;;;;;12.04;94.45;97145.97;4193775;28;21259;-81
2023/10/22 00:25:48;;;;;;;6.13;4.37;;;;;;;12.03;95.33;97149.53;4185189;28;20620;-81
2023/10/22 00:27:51;;;;;;;6.23;4.73;;;;;;;12.02;94.43;97152.28;4172398;28;21083;-81
2023/10/22 00:29:54;;;;;;;9.10;5.03;;;;;;;12.02;94.24;97157.50;4179045;28;20658;-82
2023/10/22 00:31:59;;;;;;;6.90;4.40;;;;;;;12.01;95.26;97156.69;4172224;28;20728;-82
2023/10/22 00:34:02;;;;;;;7.40;5.07;;;;;;;11.99;95.08;97158.59;4170549;28;20622;-82
2023/10/22 00:36:06;;;;;;;6.33;4.80;;;;;;;12.00;96.30;97165.47;4175649;28;20771;-82
2023/10/22 00:38:09;;;;;;;5.17;4.53;;;;;;;11.97;96.85;97165.75;4172260;28;20667;-82
2023/10/22 00:40:14;;;;;;;7.77;4.67;;;;;;;11.97;97.04;97160.53;4176608;28;20620;-82
2023/10/22 00:42:20;;;;;;;5.03;4.53;;;;;;;11.95;95.93;97159.00;4178822;28;20628;-82
2023/10/22 00:44:23;;;;;;;5.47;4.90;;;;;;;11.94;96.68;97162.59;4177457;28;20999;-82
2023/10/22 00:46:27;;;;;;;6.30;4.37;;;;;;;11.91;94.77;97162.88;4174934;28;20634;-82
2023/10/22 00:48:31;;;;;;;6.10;4.00;;;;;;;11.86;95.56;97154.59;4192065;28;21466;-82
2023/10/22 00:50:35;;;;;;;6.80;5.00;;;;;;;11.83;94.99;97160.09;4175923;28;20727;-82
2023/10/22 00:52:38;;;;;;;6.77;4.27;;;;;;;11.81;95.40;97151.56;4187523;28;20731;-81
2023/10/22 00:54:41;;;;;;;5.10;4.17;;;;;;;11.79;95.81;97149.09;4171039;28;20640;-82
2023/10/22 00:56:45;;;;;;;6.37;4.47;;;;;;;11.77;95.51;97153.63;4204449;28;20630;-81
2023/10/22 00:58:47;;;;;;;4.93;4.07;;;;;;;11.76;95.20;97157.19;4176517;28;20665;-82
2023/10/22 01:00:51;;;;;;;7.47;5.03;;;;;;;11.75;95.98;97155.53;4209345;28;21895;-82
2023/10/22 01:02:55;;;;;;;6.43;5.03;;;;;;;11.75;96.54;97165.16;4158941;28;20660;-82
2023/10/22 01:05:00;;;;;;;7.60;5.00;;;;;;;11.71;96.92;97166.38;4197190;28;20646;-81
2023/10/22 01:07:06;;;;;;;4.57;3.60;;;;;;;11.70;94.88;97172.59;4172169;28;20691;-81
2023/10/22 01:09:11;;;;;;;5.10;4.20;;;;;;;11.65;95.42;97173.94;4191820;28;21006;-84
2023/10/22 01:11:15;;;;;;;5.00;3.70;;;;;;;11.58;95.69;97173.66;4173001;28;20637;-84
2023/10/22 01:13:19;;;;;;;8.53;3.77;;;;;;;11.55;95.36;97173.91;4201395;28;20661;-84
2023/10/22 01:15:22;;;;;;;5.00;3.77;;;;;;;11.51;95.16;97175.13;4176511;28;21412;-84
2023/10/22 01:17:26;;;;;;;4.40;3.80;;;;;;;11.50;95.26;97177.88;4172212;28;21418;-84
2023/10/22 01:19:30;;;;;;;5.63;4.03;;;;;;;11.49;94.69;97178.84;4169854;28;20664;-83
2023/10/22 01:21:36;;;;;;;4.57;3.80;;;;;;;11.49;93.88;97189.28;4199555;28;20755;-84
2023/10/22 01:23:42;;;;;;;5.47;4.10;;;;;;;11.46;94.84;97184.31;4173700;28;20624;-84
2023/10/22 01:25:45;;;;;;;5.40;4.37;;;;;;;11.47;95.28;97175.53;4191718;28;20622;-84
2023/10/22 01:27:49;;;;;;;6.53;3.50;;;;;;;11.40;93.54;97175.19;4186071;28;20640;-84
2023/10/22 01:29:57;;;;;;;5.30;3.63;;;;;;;11.33;94.16;97191.53;4150410;28;20633;-84
2023/10/22 01:32:01;;;;;;;4.70;3.73;;;;;;;11.30;94.38;97189.16;4168920;28;20627;-84
2023/10/22 01:34:04;;;;;;;5.57;3.60;;;;;;;11.28;93.49;97191.91;4176046;28;20639;-84
2023/10/22 01:36:08;;;;;;;4.53;3.60;;;;;;;11.27;94.37;97185.06;4167715;28;20766;-84
2023/10/22 01:38:12;;;;;;;5.10;3.70;;;;;;;11.29;95.14;97197.97;4173795;28;20639;-84
2023/10/22 01:40:16;;;;;;;5.60;4.17;;;;;;;11.30;93.78;97189.16;4191346;28;20648;-84
2023/10/22 01:42:20;;;;;;;4.30;3.10;;;;;;;11.32;95.17;97197.69;4168505;28;21201;-84
2023/10/22 01:44:23;;;;;;;4.90;3.70;;;;;;;11.30;95.66;97194.41;4153519;28;20727;-84
2023/10/22 01:46:27;;;;;;;6.10;4.07;;;;;;;11.29;95.99;97196.19;4175619;28;20645;-84
2023/10/22 01:48:31;;;;;;;5.20;4.13;;;;;;;11.30;94.91;97197.00;4162901;28;20726;-84
2023/10/22 01:50:37;;;;;;;7.17;4.67;;;;;;;11.29;95.56;97197.97;4186999;28;20774;-84
2023/10/22 01:52:40;;;;;;;6.03;4.40;;;;;;;11.28;94.89;97193.72;4159391;28;21193;-84
2023/10/22 01:54:44;;;;;;;4.87;3.70;;;;;;;11.28;94.97;97186.69;4192815;28;20681;-84
2023/10/22 01:56:48;;;;;;;7.03;4.67;;;;;;;11.27;94.85;97188.63;4181363;28;20639;-84
2023/10/22 01:58:52;;;;;;;5.80;4.17;;;;;;;11.23;96.20;97192.44;4160122;28;20632;-84
2023/10/22 02:01:02;;;;;;;5.43;4.07;;;;;;;11.21;95.02;97195.19;4209837;28;20634;-84
2023/10/22 02:03:06;;;;;;;4.93;3.87;;;;;;;11.17;95.95;97178.16;4185956;28;20631;-84
2023/10/22 02:05:10;;;;;;;5.27;4.27;;;;;;;11.17;95.03;97183.38;4179734;28;20739;-84
2023/10/22 02:07:15;;;;;;;6.07;4.63;;;;;;;11.15;95.60;97184.44;4196974;28;21192;-84
2023/10/22 02:09:18;;;;;;;5.80;4.27;;;;;;;11.11;94.38;97186.50;4172744;28;21070;-84
2023/10/22 02:11:23;;;;;;;12.50;6.40;;;;;;;11.09;94.62;97191.00;4177843;28;20644;-84
2023/10/22 02:13:27;;;;;;;5.10;3.70;;;;;;;11.07;95.29;97192.09;4179327;28;20632;-84
2023/10/22 02:15:31;;;;;;;5.87;4.70;;;;;;;11.06;95.01;97193.03;4198641;28;20691;-84
2023/10/22 02:17:40;;;;;;;5.50;4.10;;;;;;;11.07;95.09;97197.31;4175226;28;20662;-84
2023/10/22 02:19:43;;;;;;;5.30;4.13;;;;;;;11.07;96.46;97202.53;4162046;28;21011;-84
2023/10/22 02:21:47;;;;;;;6.70;4.10;;;;;;;11.06;95.98;97199.06;4171850;28;20628;-84
2023/10/22 02:23:52;;;;;;;5.10;4.30;;;;;;;11.04;94.75;97203.59;4195594;28;21264;-84
2023/10/22 02:25:56;;;;;;;5.00;3.80;;;;;;;11.02;95.14;97205.53;4173360;28;20640;-84
2023/10/22 02:27:59;;;;;;;4.60;3.43;;;;;;;11.01;94.97;97203.88;4159438;28;20640;-84
2023/10/22 02:30:07;;;;;;;5.07;3.70;;;;;;;11.00;96.19;97202.19;4202836;28;21235;-84
2023/10/22 02:32:09;;;;;;;6.83;3.93;;;;;;;11.00;96.70;97211.81;4169418;28;20641;-84
2023/10/22 02:34:13;;;;;;;6.83;4.03;;;;;;;10.95;94.98;97214.00;4173081;28;20633;-84
2023/10/22 02:36:16;;;;;;;5.73;3.70;;;;;;;10.87;93.47;97209.44;4179753;28;21465;-84
2023/10/22 02:38:21;;;;;;;7.20;3.63;;;;;;;10.80;93.44;97210.06;4162637;28;20679;-84
2023/10/22 02:40:24;;;;;;;4.70;3.33;;;;;;;10.76;94.04;97216.47;4176383;28;20676;-84
2023/10/22 02:42:28;;;;;;;7.37;4.03;;;;;;;10.73;95.11;97223.72;4158904;28;20629;-83
2023/10/22 02:44:32;;;;;;;5.73;3.50;;;;;;;10.75;94.84;97227.03;4197642;28;20653;-84
2023/10/22 02:46:40;;;;;;;5.90;4.47;;;;;;;10.75;95.94;97225.28;4174803;28;20669;-84
2023/10/22 02:48:42;;;;;;;4.97;3.90;;;;;;;10.76;96.03;97226.91;4179519;28;20626;-84
2023/10/22 02:50:46;;;;;;;4.40;3.63;;;;;;;10.74;96.02;97234.03;4178241;28;20663;-84
2023/10/22 02:52:50;;;;;;;5.00;3.63;;;;;;;10.75;96.25;97232.25;4193582;28;20623;-84
2023/10/22 02:54:54;;;;;;;5.30;3.40;;;;;;;10.77;95.81;97231.19;4179509;28;21685;-84
2023/10/22 02:56:58;;;;;;;8.80;3.30;;;;;;;10.78;95.64;97232.00;4191960;28;20631;-84
2023/10/22 02:59:02;;;;;;;7.03;3.70;;;;;;;10.77;95.99;97239.00;4196838;28;20628;-83
2023/10/22 03:01:06;;;;;;;6.50;3.67;;;;;;;10.80;96.94;97240.53;4173277;28;20660;-84
2023/10/22 03:03:12;;;;;;;8.00;3.70;;;;;;;10.78;95.94;97243.28;4175549;28;20628;-84
2023/10/22 03:05:15;;;;;;;4.70;4.20;;;;;;;10.74;95.52;97238.44;4173660;28;21074;-84
2023/10/22 03:07:19;;;;;;;4.03;3.50;;;;;;;10.65;94.04;97241.81;4204269;28;21031;-83
2023/10/22 03:09:23;;;;;;;4.00;3.20;;;;;;;10.56;93.70;97239.94;4195669;28;20630;-84
2023/10/22 03:11:27;;;;;;;5.60;3.80;;;;;;;10.47;92.96;97238.09;4189651;28;20700;-84
2023/10/22 03:13:30;;;;;;;3.00;2.70;;;;;;;10.46;93.84;97242.47;4202508;28;20647;-84
2023/10/22 03:15:36;;;;;;;3.27;2.90;;;;;;;10.49;94.04;97236.16;4202960;28;22392;-84
2023/10/22 03:17:40;;;;;;;3.47;3.17;;;;;;;10.53;93.54;97243.63;4172966;28;20632;-84
2023/10/22 03:19:45;;;;;;;3.97;3.07;;;;;;;10.58;94.75;97244.06;4156504;28;20721;-84
2023/10/22 03:21:49;;;;;;;3.23;2.67;;;;;;;10.61;95.48;97250.81;4156700;28;21027;-83
2023/10/22 03:23:51;;;;;;;6.30;3.40;;;;;;;10.60;95.87;97254.38;4167224;28;20644;-84
2023/10/22 03:26:04;;;;;;;4.33;3.43;;;;;;;10.58;95.07;97258.88;4205849;28;20651;-84
2023/10/22 03:28:08;;;;;;;3.57;2.83;;;;;;;10.53;94.95;97251.44;4160633;28;20651;-85
2023/10/22 03:30:13;;;;;;;6.97;3.27;;;;;;;10.47;93.73;97243.31;4158901;28;21461;-84
2023/10/22 03:32:17;;;;;;;3.90;3.20;;;;;;;10.43;94.35;97245.34;4164408;28;20628;-83
2023/10/22 03:34:21;;;;;;;3.57;3.00;;;;;;;10.44;94.30;97238.34;4179455;28;20701;-84
2023/10/22 03:36:26;;;;;;;3.67;3.13;;;;;;;10.50;94.77;97243.06;4179966;28;20635;-84
2023/10/22 03:38:29;;;;;;;4.60;3.57;;;;;;;10.50;94.78;97251.69;4207517;28;20658;-84
2023/10/22 03:40:33;;;;;;;4.10;2.97;;;;;;;10.50;94.28;97250.88;4178539;28;20684;-85
2023/10/22 03:42:37;;;;;;;4.00;3.20;;;;;;;10.40;94.34;97249.94;4193283;28;20627;-84
2023/10/22 03:44:41;;;;;;;4.57;3.60;;;;;;;10.37;94.69;97253.66;4164598;28;20633;-84
2023/10/22 03:46:46;;;;;;;3.57;2.80;;;;;;;10.35;95.04;97259.94;4176384;28;20668;-84
2023/10/22 03:48:50;;;;;;;3.93;2.67;;;;;;;10.30;95.13;97262.09;4191346;28;20681;-84
2023/10/22 03:50:55;;;;;;;7.20;3.10;;;;;;;10.23;93.84;97271.34;4188687;28;20635;-84
2023/10/22 03:52:58;;;;;;;4.50;3.23;;;;;;;10.14;94.01;97263.44;4174460;28;20666;-84
2023/10/22 03:55:04;;;;;;;4.83;3.33;;;;;;;10.09;94.28;97269.00;4192726;28;20628;-84
2023/10/22 03:57:08;;;;;;;3.47;3.13;;;;;;;10.12;95.19;97267.94;4170020;28;21003;-84
2023/10/22 03:59:11;;;;;;;6.43;3.40;;;;;;;10.16;95.37;97270.16;4206197;28;21202;-84
2023/10/22 04:01:14;;;;;;;3.20;2.70;;;;;;;10.17;95.83;97264.00;4190295;28;20681;-84
2023/10/22 04:03:18;;;;;;;5.30;3.10;;;;;;;10.22;95.75;97276.66;4191313;28;21185;-84
2023/10/22 04:05:21;;;;;;;5.87;3.10;;;;;;;10.24;96.22;97277.38;4160054;28;20638;-84
2023/10/22 04:07:25;;;;;;;3.73;3.27;;;;;;;10.25;96.02;97279.84;4172029;28;20620;-84
2023/10/22 04:09:30;;;;;;;5.67;3.10;;;;;;;10.24;95.74;97279.97;4201724;28;20721;-85
2023/10/22 04:11:33;;;;;;;4.20;2.80;;;;;;;10.22;95.76;97285.31;4176892;28;20799;-84
2023/10/22 04:13:36;;;;;;;3.63;2.80;;;;;;;10.22;95.56;97277.50;4191075;28;20604;-84
2023/10/22 04:15:40;;;;;;;4.00;2.67;;;;;;;10.21;96.22;97282.81;4190749;28;20638;-84
2023/10/22 04:17:46;;;;;;;2.77;2.33;;;;;;;10.20;95.83;97273.38;4206131;28;20634;-84
2023/10/22 04:19:49;;;;;;;4.00;3.03;;;;;;;10.17;96.25;97279.63;4175563;28;20625;-84
2023/10/22 04:21:52;;;;;;;3.40;2.60;;;;;;;10.20;96.41;97286.41;4176604;28;21215;-84
2023/10/22 04:23:58;;;;;;;3.43;3.13;;;;;;;10.22;96.35;97293.13;4189055;28;20650;-84
2023/10/22 04:26:04;;;;;;;5.07;3.00;;;;;;;10.21;96.51;97299.31;4190713;28;20647;-84
2023/10/22 04:28:07;;;;;;;5.00;3.10;;;;;;;10.21;96.41;97296.69;4209992;28;20623;-84
2023/10/22 04:30:12;;;;;;;3.57;3.23;;;;;;;10.21;96.28;97299.31;4178415;28;20661;-84
2023/10/22 04:32:16;;;;;;;5.00;2.73;;;;;;;10.20;95.98;97302.84;4172580;28;20631;-84
2023/10/22 04:34:19;;;;;;;3.17;2.80;;;;;;;10.17;95.34;97304.88;4189924;28;20692;-84
2023/10/22 04:36:23;;;;;;;4.50;2.70;;;;;;;10.15;94.69;97309.34;4193041;28;20940;-84
2023/10/22 04:38:25;;;;;;;5.17;2.70;;;;;;;10.13;95.07;97309.50;4193086;28;21249;-84
2023/10/22 04:40:32;;;;;;;4.23;2.90;;;;;;;10.08;94.80;97314.22;4191259;28;20636;-84
2023/10/22 04:42:37;;;;;;;3.70;2.97;;;;;;;10.05;94.56;97313.66;4189006;28;20722;-84
2023/10/22 04:44:42;;;;;;;5.70;2.80;;;;;;;10.00;95.30;97319.22;4190255;28;20623;-84
2023/10/22 04:46:45;;;;;;;4.10;2.70;;;;;;;9.98;94.95;97318.53;4192185;28;20654;-84
2023/10/22 04:48:48;;;;;;;4.10;2.60;;;;;;;9.98;95.44;97325.50;4176287;28;20625;-84
2023/10/22 04:50:53;;;;;;;5.40;3.00;;;;;;;9.97;95.50;97324.69;4192688;28;20642;-84
2023/10/22 04:52:57;;;;;;;4.40;3.30;;;;;;;9.94;95.21;97326.69;4176251;28;20786;-84
2023/10/22 04:55:01;;;;;;;4.70;3.37;;;;;;;9.91;95.57;97327.72;4204849;28;20628;-83
2023/10/22 04:57:05;;;;;;;5.10;3.50;;;;;;;9.90;95.41;97333.06;4161039;28;20984;-84
2023/10/22 04:59:10;;;;;;;5.13;4.00;;;;;;;9.87;95.48;97334.09;4193614;28;21052;-84
2023/10/22 05:01:12;;;;;;;4.67;3.27;;;;;;;9.87;95.24;97336.72;4187577;28;20704;-83
2023/10/22 05:03:15;;;;;;;4.63;3.07;;;;;;;9.87;95.63;97328.06;4187596;28;20640;-84
2023/10/22 05:05:20;;;;;;;4.60;3.20;;;;;;;9.88;95.32;97332.34;4159058;28;20638;-84
2023/10/22 05:07:24;;;;;;;3.80;3.40;;;;;;;9.89;95.44;97336.59;4173504;28;20728;-84
2023/10/22 05:09:27;;;;;;;4.70;3.23;;;;;;;9.87;95.02;97336.72;4182009;28;20624;-84
2023/10/22 05:11:31;;;;;;;4.60;3.20;;;;;;;9.85;94.25;97332.59;4191833;28;20632;-82
2023/10/22 05:13:34;;;;;;;4.13;3.23;;;;;;;9.80;93.65;97339.09;4193259;28;20649;-81
2023/10/22 05:15:37;;;;;;;4.63;3.47;;;;;;;9.71;93.63;97331.97;4185873;28;20643;-82
2023/10/22 05:17:41;;;;;;;4.43;3.30;;;;;;;9.67;94.47;97335.78;4177657;28;20643;-82
2023/10/22 05:19:44;;;;;;;3.77;3.37;;;;;;;9.63;94.59;97339.56;4155133;28;20628;-82
2023/10/22 05:21:48;;;;;;;5.40;2.73;;;;;;;9.60;94.24;97343.22;4149608;28;20772;-82
2023/10/22 05:23:50;;;;;;;3.60;2.60;;;;;;;9.54;92.70;97337.66;4150024;28;21251;-82
2023/10/22 05:26:03;;;;;;;5.27;2.63;;;;;;;9.53;93.32;97343.81;4176778;28;21108;-82
2023/10/22 05:28:06;;;;;;;4.00;2.67;;;;;;;9.52;93.95;97350.78;4185074;28;20664;-82
2023/10/22 05:30:11;;;;;;;3.70;2.87;;;;;;;9.53;93.61;97349.00;4176837;28;20665;-82
2023/10/22 05:32:16;;;;;;;4.63;2.73;;;;;;;9.60;94.21;97350.22;4194202;28;20655;-82
2023/10/22 05:34:19;;;;;;;6.47;2.80;;;;;;;9.64;94.45;97364.66;4178575;28;21041;-82
2023/10/22 05:36:21;;;;;;;5.23;3.17;;;;;;;9.59;95.52;97366.75;4181240;28;20641;-82
2023/10/22 05:38:25;;;;;;;3.77;3.10;;;;;;;9.57;94.94;97366.06;4159762;28;20638;-82
2023/10/22 05:40:28;;;;;;;4.10;2.80;;;;;;;9.57;94.66;97376.47;4163516;28;20614;-81
2023/10/22 05:42:31;;;;;;;3.70;3.27;;;;;;;9.57;95.73;97379.06;4157863;28;20759;-82
2023/10/22 05:44:35;;;;;;;3.23;2.93;;;;;;;9.57;95.83;97377.28;4158449;28;20676;-82
2023/10/22 05:46:41;;;;;;;3.20;2.60;;;;;;;9.60;96.48;97379.66;4188481;28;20620;-82
2023/10/22 05:48:44;;;;;;;5.20;3.33;;;;;;;9.63;96.41;97376.81;4169543;28;20627;-82
2023/10/22 05:50:48;;;;;;;4.27;3.50;;;;;;;9.64;95.97;97375.88;4177029;28;20630;-82
2023/10/22 05:52:51;;;;;;;3.87;3.40;;;;;;;9.64;95.74;97377.69;4178188;28;20619;-82
2023/10/22 05:54:55;;;;;;;3.77;3.47;;;;;;;9.64;96.07;97382.88;4191600;28;20644;-82
2023/10/22 05:56:58;;;;;;;3.33;3.00;;;;;;;9.66;96.64;97391.41;4189461;28;20735;-82
2023/10/22 05:59:04;;;;;;;3.40;2.80;;;;;;;9.66;96.29;97392.22;4193134;28;20643;-82
2023/10/22 06:01:08;;;;;;;4.10;3.17;;;;;;;9.70;96.92;97391.03;4193405;28;20719;-82
2023/10/22 06:03:11;;;;;;;6.20;4.90;;;;;;;9.69;95.99;97391.16;4194162;28;20659;-81
2023/10/22 06:05:16;;;;;;;7.90;3.87;;;;;;;9.66;94.94;97394.81;4171003;28;20628;-82
2023/10/22 06:07:26;;;;;;;6.00;4.10;;;;;;;9.60;94.23;97389.25;4192586;28;20623;-82
2023/10/22 06:09:29;;;;;;;3.97;3.57;;;;;;;9.57;94.77;97407.69;4174971;28;20660;-82
2023/10/22 06:11:31;;;;;;;4.27;3.50;;;;;;;9.56;94.10;97406.03;4192180;28;21526;-81
2023/10/22 06:13:35;;;;;;;5.00;3.23;;;;;;;9.53;94.22;97408.88;4174599;28;20620;-81
2023/10/22 06:15:41;;;;;;;3.90;3.10;;;;;;;9.56;93.79;97419.06;4170048;28;20642;-82
2023/10/22 06:17:44;;;;;;;3.80;2.60;;;;;;;9.65;93.97;97426.16;4176507;28;20638;-82
2023/10/22 06:19:48;;;;;;;3.30;2.77;;;;;;;9.76;94.99;97434.00;4174758;28;20678;-82
2023/10/22 06:21:53;;;;;;;4.73;3.30;;;;;;;9.91;94.91;97431.91;4159600;28;20660;-82
2023/10/22 06:23:59;;;;;;;5.83;3.60;;;;;;;10.06;94.91;97435.16;4183616;28;21053;-82
2023/10/22 06:26:02;;;;;;;4.20;3.53;;;;;;;10.21;94.95;97442.63;4169152;28;20735;-82
2023/10/22 06:28:06;;;;;;;4.60;3.67;;;;;;;10.35;95.09;97448.41;4184750;28;20693;-83
2023/10/22 06:30:10;;;;;;;5.20;4.30;;;;;;;10.47;94.75;97452.66;4190482;28;20654;-82
2023/10/22 06:32:13;;;;;;;11.70;7.93;;;;;;;10.58;94.36;97451.81;4149965;28;20637;-82
2023/10/22 06:34:16;;;;;;;11.87;8.20;;;;;;;10.69;94.90;97457.00;4171446;28;20666;-82
2023/10/22 06:36:20;;;;;;;42.23;24.03;;;;;;;10.80;93.82;97460.44;4156425;28;20633;-82
2023/10/22 06:38:25;;;;;;;8.30;6.40;;;;;;;10.94;95.35;97463.59;4188436;28;20632;-82
2023/10/22 06:40:28;;;;;;;5.30;3.70;;;;;;;11.10;94.37;97460.63;4173719;28;20716;-82
2023/10/22 06:42:33;;;;;;;4.43;2.63;;;;;;;11.17;93.05;97460.00;4194036;28;20654;-82
2023/10/22 06:44:41;;;;;;;4.50;2.90;;;;;;;11.26;91.78;97468.84;4189338;28;20627;-82
2023/10/22 06:46:45;;;;;;;3.87;2.90;;;;;;;11.32;91.69;97466.56;4206670;28;20720;-82
2023/10/22 06:48:48;;;;;;;4.03;3.50;;;;;;;11.42;91.34;97470.91;4173369;28;20639;-82
2023/10/22 06:50:52;;;;;;;4.77;4.10;;;;;;;11.50;91.51;97467.72;4191275;28;20633;-82
2023/10/22 06:52:55;;;;;;;4.00;3.57;;;;;;;11.61;91.26;97465.88;4207653;28;20622;-82
2023/10/22 06:55:01;;;;;;;4.43;3.23;;;;;;;11.71;91.29;97473.78;4194292;28;20627;-82
2023/10/22 06:57:04;;;;;;;4.80;3.53;;;;;;;11.87;92.57;97478.44;4174941;28;21193;-82
2023/10/22 06:59:08;;;;;;;3.73;3.43;;;;;;;12.11;91.19;97486.84;4206980;28;20672;-82
2023/10/22 07:01:12;;;;;;;4.07;3.53;;;;;;;12.33;90.89;97494.56;4176275;28;20624;-82
2023/10/22 07:03:16;;;;;;;6.87;4.87;;;;;;;12.54;92.11;97495.31;4164426;28;20693;-83
2023/10/22 07:05:19;;;;;;;12.43;10.67;;;;;;;12.61;90.85;97493.84;4194854;28;20631;-84
2023/10/22 07:07:25;;;;;;;12.23;10.93;;;;;;;12.69;89.87;97507.94;4176500;28;20618;-83
2023/10/22 07:09:29;;;;;;;13.20;11.30;;;;;;;12.78;90.42;97505.34;4195025;28;20633;-83
2023/10/22 07:11:35;;;;;;;10.90;6.13;;;;;;;12.93;90.84;97517.13;4176803;28;20666;-83
2023/10/22 07:13:39;;;;;;;8.10;5.83;;;;;;;13.06;90.59;97519.50;4204651;28;20661;-83
2023/10/22 07:15:42;;;;;;;5.47;3.83;;;;;;;13.18;89.68;97513.19;4156367;28;20630;-83
2023/10/22 07:17:49;;;;;;;3.90;3.03;;;;;;;13.32;91.21;97522.34;4157429;28;20626;-83
2023/10/22 07:19:52;;;;;;;7.00;5.10;;;;;;;13.51;91.38;97516.28;4171970;28;21144;-83
2023/10/22 07:21:56;;;;;;;4.37;3.80;;;;;;;13.66;90.68;97519.19;4177698;28;20683;-83
2023/10/22 07:24:00;;;;;;;3.30;2.13;;;;;;;13.84;91.41;97524.56;4189235;28;20651;-83
2023/10/22 07:26:04;;;;;;;2.50;1.73;;;;;;;14.02;90.10;97523.72;4193454;28;20749;-83
2023/10/22 07:28:08;;;;;;;3.93;2.40;;;;;;;14.13;90.73;97527.06;4168781;28;20653;-83
2023/10/22 07:30:13;;;;;;;3.17;2.20;;;;;;;14.34;92.37;97532.97;4185612;28;20667;-88
2023/10/22 07:32:16;;;;;;;3.57;1.90;;;;;;;14.54;90.03;97537.19;4202406;28;20636;-83
2023/10/22 07:34:20;;;;;;;5.10;1.70;;;;;;;14.78;90.42;97542.78;4190031;28;20645;-82
2023/10/22 07:36:23;;;;;;;7.20;2.77;;;;;;;15.02;91.88;97540.47;4161673;28;20668;-86
2023/10/22 07:38:29;;;;;;;7.23;2.50;;;;;;;15.18;90.57;97549.41;4181420;28;20689;-82
2023/10/22 07:40:36;;;;;;;4.80;3.77;;;;;;;15.29;88.76;97549.19;4150982;28;20640;-82
2023/10/22 07:42:39;;;;;;;2.20;1.57;;;;;;;15.43;86.95;97553.97;4192087;28;20666;-82
2023/10/22 07:44:44;;;;;;;6.00;4.17;;;;;;;15.58;87.72;97554.13;4208725;28;20647;-84
2023/10/22 07:46:48;;;;;;;4.90;3.50;;;;;;;15.71;86.43;97561.66;4178620;28;20630;-83
2023/10/22 07:48:51;;;;;;;3.27;2.17;;;;;;;15.85;86.19;97555.91;4178998;28;20734;-83
2023/10/22 07:50:54;;;;;;;3.67;2.10;;;;;;;15.94;85.50;97563.72;4176685;28;20635;-83
2023/10/22 07:53:01;;;;;;;4.37;3.10;;;;;;;16.08;86.16;97563.19;4167630;28;20651;-81
2023/10/22 07:55:05;;;;;;;8.27;3.80;;;;;;;16.20;84.61;97568.06;4198987;28;21248;-82
2023/10/22 07:57:09;;;;;;;5.67;3.47;;;;;;;16.27;83.96;97573.59;4186606;28;21230;-84
2023/10/22 07:59:11;;;;;;;5.83;4.80;;;;;;;16.29;82.19;97576.88;4158695;28;20624;-84
2023/10/22 08:01:16;;;;;;;4.47;2.70;;;;;;;16.36;81.79;97572.69;4175379;28;20700;-84
2023/10/22 08:03:20;;;;;;;6.17;2.17;;;;;;;16.39;81.25;97580.25;4181154;28;21235;-84
2023/10/22 08:05:23;;;;;;;4.40;2.03;;;;;;;16.52;81.80;97574.44;4169992;28;20732;-83
2023/10/22 08:07:27;;;;;;;3.03;1.63;;;;;;;16.60;80.72;97574.50;4203247;28;21082;-83
2023/10/22 08:09:31;;;;;;;3.10;1.17;;;;;;;16.69;82.54;97580.66;4207303;28;20637;-83
2023/10/22 08:11:34;;;;;;;3.63;1.70;;;;;;;16.78;81.47;97593.72;4172304;28;20646;-83
2023/10/22 08:13:36;;;;;;;4.30;1.40;;;;;;;16.84;80.32;97585.19;4161899;28;20613;-83
2023/10/22 08:15:40;;;;;;;4.10;1.50;;;;;;;16.78;80.70;97588.44;4151169;28;21288;-84
2023/10/22 08:17:44;;;;;;;3.33;1.30;;;;;;;16.80;78.06;97588.28;4174786;28;20722;-83
2023/10/22 08:19:50;;;;;;;2.73;1.20;;;;;;;16.85;80.09;97588.66;4177265;28;20680;-83
2023/10/22 08:21:54;;;;;;;3.90;1.60;;;;;;;17.03;80.04;97600.78;4177163;28;21127;-83
2023/10/22 08:23:56;;;;;;;4.57;2.20;;;;;;;17.06;78.56;97597.81;4160113;28;20676;-83
2023/10/22 08:25:59;;;;;;;4.13;1.20;;;;;;;16.98;77.11;97592.53;4191942;28;20632;-83
2023/10/22 08:28:03;;;;;;;2.57;1.03;;;;;;;17.01;77.19;97592.22;4162047;28;20698;-83
2023/10/22 08:30:07;;;;;;;4.03;1.30;;;;;;;17.00;77.80;97591.38;4172052;28;21305;-82
2023/10/22 08:32:11;;;;;;;7.00;1.40;;;;;;;17.06;76.90;97588.13;4159195;28;20636;-83
2023/10/22 08:34:16;;;;;;;2.90;1.53;;;;;;;17.12;76.56;97594.56;4203581;28;20647;-84
2023/10/22 08:36:19;;;;;;;3.07;1.10;;;;;;;17.04;77.67;97591.91;4187420;28;20627;-83
2023/10/22 08:38:22;;;;;;;1.70;0.90;;;;;;;17.07;78.37;97596.84;4179556;28;21026;-86
2023/10/22 08:40:25;;;;;;;2.97;1.00;;;;;;;17.05;76.92;97599.66;4197004;28;20633;-84
2023/10/22 08:42:31;;;;;;;3.03;1.00;;;;;;;17.18;76.97;97599.22;4167453;28;20644;-83
2023/10/22 08:44:35;;;;;;;1.70;1.00;;;;;;;17.21;76.08;97605.00;4162638;28;21016;-83
2023/10/22 08:46:39;;;;;;;3.87;1.00;;;;;;;17.18;74.49;97602.66;4184698;28;20633;-83
2023/10/22 08:48:42;;;;;;;7.77;1.20;;;;;;;17.18;76.33;97596.56;4159172;28;20628;-83
2023/10/22 08:50:48;;;;;;;3.10;1.30;;;;;;;17.23;74.83;97603.06;4177228;28;21272;-84
2023/10/22 08:52:51;;;;;;;2.90;0.93;;;;;;;17.25;74.68;97606.38;4163015;28;20644;-83
2023/10/22 08:54:55;;;;;;;3.13;1.03;;;;;;;17.27;74.33;97598.31;4167825;28;21213;-83
2023/10/22 08:56:59;;;;;;;5.93;1.30;;;;;;;17.34;75.26;97599.34;4198335;28;20720;-84
2023/10/22 08:59:03;;;;;;;3.40;1.00;;;;;;;17.42;74.14;97602.81;4161046;28;21473;-83
2023/10/22 09:01:06;;;;;;;7.03;1.33;;;;;;;17.34;73.42;97604.59;4186099;28;20643;-83
2023/10/22 09:03:10;;;;;;;2.83;1.00;;;;;;;17.27;72.53;97598.31;4164173;28;20632;-83
2023/10/22 09:05:13;;;;;;;4.93;0.97;;;;;;;17.31;74.47;97610.19;4187928;28;20717;-85
2023/10/22 09:07:18;;;;;;;2.63;0.90;;;;;;;17.35;74.29;97601.81;4176659;28;20635;-86
2023/10/22 09:09:28;;;;;;;2.57;0.83;;;;;;;17.47;74.21;97603.19;4192973;28;20750;-85
2023/10/22 09:11:32;;;;;;;3.73;1.10;;;;;;;17.52;75.34;97611.44;4199598;28;20643;-85
2023/10/22 09:13:35;;;;;;;7.30;1.30;;;;;;;17.55;74.70;97613.75;4188966;28;20624;-83
2023/10/22 09:15:38;;;;;;;3.23;1.03;;;;;;;17.62;74.30;97610.31;4156613;28;20650;-85
2023/10/22 09:17:43;;;;;;;5.20;1.03;;;;;;;17.60;71.79;97612.28;4184718;28;20662;-83
2023/10/22 09:19:52;;;;;;;3.20;1.30;;;;;;;17.72;72.93;97612.81;4203301;28;20634;-85
2023/10/22 09:21:55;;;;;;;3.40;1.20;;;;;;;17.71;73.09;97614.66;4169010;28;20663;-83
2023/10/22 09:24:10;;;;;;;3.10;1.10;;;;;;;17.76;72.07;97614.97;4155202;28;20750;-83
2023/10/22 09:26:13;;;;;;;6.23;1.07;;;;;;;17.77;72.16;97616.66;4186433;28;21265;-83
2023/10/22 09:28:20;;;;;;;5.80;1.20;;;;;;;17.83;73.49;97618.66;4167129;28;20641;-82
2023/10/22 09:30:29;;;;;;;3.33;0.93;;;;;;;17.88;73.55;97620.81;4167509;28;20673;-83
2023/10/22 09:32:34;;;;;;;2.80;1.23;;;;;;;17.83;71.94;97618.66;4181717;28;20627;-83
2023/10/22 09:34:37;;;;;;;3.97;1.13;;;;;;;17.90;73.02;97618.81;4186668;28;20629;-83
2023/10/22 09:36:52;;;;;;;2.23;0.97;;;;;;;17.88;72.13;97620.81;4172239;28;21246;-82
2023/10/22 09:38:57;;;;;;;4.03;0.90;;;;;;;17.97;71.27;97625.94;4189074;28;20633;-84
2023/10/22 09:41:01;;;;;;;1.73;0.80;;;;;;;18.01;71.56;97614.03;4185237;28;21260;-82
2023/10/22 09:43:04;;;;;;;2.67;1.00;;;;;;;18.01;71.93;97606.13;4173987;28;21197;-84
2023/10/22 09:45:09;;;;;;;2.87;1.00;;;;;;;18.04;71.37;97604.00;4194304;28;20656;-85